NKS2920 KJFK-KMYJ
Flight info
| Callsign | NKS2920 |
|---|---|
| Flight time | N/A |
| Altitude | 38000 |
| Route | DEEZZ5 TOWIN ROD BAYLI |
| Aircraft | A21N/M-SDE2E3FGHIRWXY/LB1 |
Departure
| Time | 2026-05-03 20:20 |
|---|---|
| Airport | John F. Kennedy International Airport (KJFK) |
Arrival
| Time | N/A |
|---|---|
| Airport | Mexico Memorial Airport (KMYJ) |
| Time | Latitude | Longitude | Altitude | Speed | Heading |
|---|---|---|---|---|---|
| 2026-05-03 20:15 | 39.69709 | -73.36085 | 34564 ft | 438 kts | 339° |
| 2026-05-03 20:15 | 39.72682 | -73.36942 | 34750 ft | 438 kts | 339° |
| 2026-05-03 20:15 | 39.75663 | -73.37802 | 34906 ft | 438 kts | 339° |
| 2026-05-03 20:15 | 39.78602 | -73.38650 | 35060 ft | 439 kts | 339° |
| 2026-05-03 20:16 | 39.81581 | -73.39514 | 35210 ft | 439 kts | 339° |
| 2026-05-03 20:16 | 39.84560 | -73.40379 | 35367 ft | 439 kts | 339° |
| 2026-05-03 20:16 | 39.87544 | -73.41245 | 35510 ft | 440 kts | 339° |
| 2026-05-03 20:16 | 39.90531 | -73.42112 | 35642 ft | 440 kts | 339° |
| 2026-05-03 20:17 | 39.93521 | -73.42979 | 35800 ft | 440 kts | 339° |
| 2026-05-03 20:17 | 39.96512 | -73.43848 | 35909 ft | 441 kts | 339° |
| 2026-05-03 20:17 | 39.99514 | -73.44720 | 36029 ft | 442 kts | 339° |
| 2026-05-03 20:17 | 40.02516 | -73.45591 | 36146 ft | 442 kts | 339° |
| 2026-05-03 20:18 | 40.05521 | -73.46464 | 36276 ft | 442 kts | 339° |
| 2026-05-03 20:18 | 40.08521 | -73.47337 | 36386 ft | 443 kts | 339° |
| 2026-05-03 20:18 | 40.11485 | -73.48200 | 36489 ft | 443 kts | 339° |
| 2026-05-03 20:18 | 40.14499 | -73.49079 | 36602 ft | 443 kts | 339° |
| 2026-05-03 20:19 | 40.17507 | -73.49957 | 36736 ft | 443 kts | 340° |
| 2026-05-03 20:19 | 40.23536 | -73.51718 | 36909 ft | 444 kts | 340° |
| 2026-05-03 20:19 | 40.26558 | -73.52602 | 37023 ft | 445 kts | 340° |
| 2026-05-03 20:20 | 40.29576 | -73.53486 | 37115 ft | 445 kts | 340° |
| 2026-05-03 20:20 | 40.35615 | -73.55256 | 37283 ft | 445 kts | 339° |
| 2026-05-03 20:20 | 40.38646 | -73.56147 | 37405 ft | 446 kts | 340° |
| 2026-05-03 20:21 | 40.41674 | -73.57038 | 37431 ft | 447 kts | 340° |
| 2026-05-03 20:21 | 40.47711 | -73.58813 | 37549 ft | 448 kts | 340° |
| 2026-05-03 20:22 | 40.53812 | -73.60608 | 37665 ft | 450 kts | 340° |
| 2026-05-03 20:22 | 40.59923 | -73.62412 | 37779 ft | 451 kts | 340° |
| 2026-05-03 20:23 | 40.66054 | -73.64227 | 37884 ft | 452 kts | 340° |
| 2026-05-03 20:23 | 40.72166 | -73.66037 | 37924 ft | 454 kts | 340° |
| 2026-05-03 20:24 | 40.78313 | -73.67864 | 37913 ft | 453 kts | 340° |
| 2026-05-03 20:24 | 40.84458 | -73.69696 | 37918 ft | 453 kts | 340° |
| 2026-05-03 20:25 | 40.90613 | -73.71533 | 37903 ft | 453 kts | 340° |
| 2026-05-03 20:25 | 40.96765 | -73.73371 | 37897 ft | 453 kts | 340° |
| 2026-05-03 20:26 | 41.02804 | -73.75424 | 37897 ft | 446 kts | 332° |
| 2026-05-03 20:26 | 41.08053 | -73.79415 | 37896 ft | 428 kts | 313° |
| 2026-05-03 20:27 | 41.11811 | -73.85337 | 37899 ft | 416 kts | 295° |
| 2026-05-03 20:27 | 41.13838 | -73.92402 | 37908 ft | 409 kts | 281° |
| 2026-05-03 20:28 | 41.15035 | -73.99784 | 37912 ft | 410 kts | 279° |
| 2026-05-03 20:28 | 41.16196 | -74.07153 | 37928 ft | 412 kts | 279° |
| 2026-05-03 20:29 | 41.17204 | -74.14629 | 37937 ft | 411 kts | 276° |
| 2026-05-03 20:29 | 41.17918 | -74.22161 | 37941 ft | 411 kts | 275° |
| 2026-05-03 20:30 | 41.18624 | -74.29697 | 37941 ft | 411 kts | 275° |
| 2026-05-03 20:30 | 41.19323 | -74.37179 | 37941 ft | 411 kts | 275° |
| 2026-05-03 20:31 | 41.19248 | -74.44736 | 37935 ft | 410 kts | 259° |
| 2026-05-03 20:31 | 41.17371 | -74.51867 | 37936 ft | 413 kts | 243° |
| 2026-05-03 20:32 | 41.14421 | -74.58438 | 37930 ft | 415 kts | 241° |
| 2026-05-03 20:32 | 41.11409 | -74.64952 | 37935 ft | 414 kts | 241° |
| 2026-05-03 20:33 | 41.08432 | -74.71415 | 37935 ft | 413 kts | 241° |
| 2026-05-03 20:33 | 41.05436 | -74.77921 | 37936 ft | 413 kts | 241° |
| 2026-05-03 20:34 | 41.02438 | -74.84425 | 37941 ft | 413 kts | 241° |
| 2026-05-03 20:34 | 40.99459 | -74.90875 | 37940 ft | 413 kts | 241° |
| 2026-05-03 20:35 | 40.95967 | -74.96925 | 37939 ft | 418 kts | 227° |
| 2026-05-03 20:35 | 40.91439 | -75.01802 | 37947 ft | 421 kts | 222° |
| 2026-05-03 20:36 | 40.86778 | -75.06502 | 37950 ft | 422 kts | 222° |
| 2026-05-03 20:36 | 40.82118 | -75.11213 | 37951 ft | 422 kts | 222° |
| 2026-05-03 20:37 | 40.77487 | -75.15896 | 37947 ft | 421 kts | 222° |
| 2026-05-03 20:37 | 40.72842 | -75.20589 | 37943 ft | 420 kts | 222° |
| 2026-05-03 20:38 | 40.68207 | -75.25266 | 37962 ft | 420 kts | 222° |
| 2026-05-03 20:38 | 40.63567 | -75.29941 | 37960 ft | 420 kts | 222° |
| 2026-05-03 20:39 | 40.58960 | -75.34571 | 37956 ft | 419 kts | 223° |
| 2026-05-03 20:39 | 40.54331 | -75.39218 | 37971 ft | 418 kts | 223° |
| 2026-05-03 20:40 | 40.49709 | -75.43854 | 37969 ft | 418 kts | 223° |
| 2026-05-03 20:40 | 40.45080 | -75.48486 | 37962 ft | 418 kts | 223° |
| 2026-05-03 20:41 | 40.40482 | -75.53069 | 37958 ft | 418 kts | 223° |
| 2026-05-03 20:41 | 40.35847 | -75.57640 | 37989 ft | 416 kts | 223° |
| 2026-05-03 20:42 | 40.31221 | -75.62203 | 37991 ft | 416 kts | 223° |
| 2026-05-03 20:42 | 40.26598 | -75.66765 | 37989 ft | 416 kts | 223° |
| 2026-05-03 20:43 | 40.21978 | -75.71319 | 37983 ft | 416 kts | 223° |
| 2026-05-03 20:43 | 40.17382 | -75.75814 | 37998 ft | 415 kts | 223° |
| 2026-05-03 20:44 | 40.12764 | -75.80327 | 38002 ft | 415 kts | 223° |
| 2026-05-03 20:44 | 40.08139 | -75.84840 | 38004 ft | 415 kts | 223° |
| 2026-05-03 20:45 | 40.03522 | -75.89344 | 37955 ft | 414 kts | 223° |
| 2026-05-03 20:45 | 39.98920 | -75.93780 | 37995 ft | 413 kts | 223° |
| 2026-05-03 20:46 | 39.94300 | -75.98228 | 38012 ft | 413 kts | 223° |
| 2026-05-03 20:46 | 39.89679 | -76.02678 | 38010 ft | 413 kts | 223° |
| 2026-05-03 20:47 | 39.85066 | -76.07123 | 38010 ft | 413 kts | 223° |
| 2026-05-03 20:47 | 39.80482 | -76.11540 | 38006 ft | 413 kts | 223° |
| 2026-05-03 20:48 | 39.75873 | -76.15984 | 38009 ft | 412 kts | 223° |
| 2026-05-03 20:48 | 39.71266 | -76.20429 | 38026 ft | 412 kts | 223° |
| 2026-05-03 20:49 | 39.66665 | -76.24870 | 38026 ft | 412 kts | 223° |
| 2026-05-03 20:49 | 39.62068 | -76.29293 | 38026 ft | 411 kts | 223° |
| 2026-05-03 20:50 | 39.57503 | -76.33672 | 38033 ft | 411 kts | 223° |
| 2026-05-03 20:50 | 39.52911 | -76.38081 | 38032 ft | 411 kts | 223° |
| 2026-05-03 20:51 | 39.48325 | -76.42486 | 38035 ft | 410 kts | 223° |
| 2026-05-03 20:51 | 39.43738 | -76.46889 | 38030 ft | 410 kts | 223° |
| 2026-05-03 20:52 | 39.39197 | -76.51242 | 38036 ft | 409 kts | 223° |
| 2026-05-03 20:52 | 39.34630 | -76.55631 | 38053 ft | 409 kts | 223° |
| 2026-05-03 20:53 | 39.30066 | -76.60021 | 38029 ft | 409 kts | 223° |
| 2026-05-03 20:53 | 39.25509 | -76.64409 | 37995 ft | 409 kts | 223° |
| 2026-05-03 20:54 | 39.20963 | -76.68786 | 38025 ft | 407 kts | 223° |
| 2026-05-03 20:54 | 39.14185 | -76.75313 | 38054 ft | 407 kts | 223° |
| 2026-05-03 20:55 | 39.09653 | -76.79680 | 38053 ft | 407 kts | 223° |
| 2026-05-03 20:55 | 39.05125 | -76.84045 | 38022 ft | 407 kts | 224° |
| 2026-05-03 20:56 | 39.00604 | -76.88400 | 38033 ft | 405 kts | 223° |
| 2026-05-03 20:56 | 38.96133 | -76.92722 | 38035 ft | 405 kts | 224° |
| 2026-05-03 20:57 | 38.91629 | -76.97080 | 38035 ft | 405 kts | 224° |
| 2026-05-03 20:57 | 38.87128 | -77.01435 | 38038 ft | 405 kts | 224° |
| 2026-05-03 20:58 | 38.82625 | -77.05786 | 38033 ft | 404 kts | 224° |
| 2026-05-03 20:58 | 38.78163 | -77.10082 | 38034 ft | 404 kts | 224° |
| 2026-05-03 20:59 | 38.73672 | -77.14409 | 38017 ft | 404 kts | 224° |
| 2026-05-03 20:59 | 38.69190 | -77.18729 | 38017 ft | 403 kts | 224° |
| 2026-05-03 21:00 | 38.66190 | -77.21622 | 38088 ft | 403 kts | 224° |
| 2026-05-03 21:00 | 38.60255 | -77.27327 | 38074 ft | 403 kts | 224° |
| 2026-05-03 21:01 | 38.55776 | -77.31625 | 38054 ft | 403 kts | 224° |
| 2026-05-03 21:01 | 38.51298 | -77.35924 | 38054 ft | 403 kts | 224° |
| 2026-05-03 21:02 | 38.46822 | -77.40223 | 38045 ft | 403 kts | 224° |
| 2026-05-03 21:02 | 38.42344 | -77.44522 | 38040 ft | 402 kts | 224° |
| 2026-05-03 21:03 | 38.37920 | -77.48747 | 38041 ft | 399 kts | 224° |
| 2026-05-03 21:03 | 38.33479 | -77.52986 | 38050 ft | 399 kts | 224° |